sensor_id;sensor_type;location;lat;lon;timestamp;pressure;altitude;pressure_sealevel;temperature;humidity
60371;BME280;48550;40.588;49.684;2022-08-06T00:00:01;100979.81;;;25.52;100.00
60371;BME280;48550;40.588;49.684;2022-08-06T00:02:30;100975.94;;;25.53;100.00
60371;BME280;48550;40.588;49.684;2022-08-06T00:04:57;100975.59;;;25.63;100.00
60371;BME280;48550;40.588;49.684;2022-08-06T00:07:24;100976.25;;;25.69;100.00
60371;BME280;48550;40.588;49.684;2022-08-06T00:09:50;100973.97;;;25.71;100.00
60371;BME280;48550;40.588;49.684;2022-08-06T00:12:15;100968.34;;;25.67;100.00
60371;BME280;48550;40.588;49.684;2022-08-06T00:14:41;100956.53;;;25.67;100.00
60371;BME280;48550;40.588;49.684;2022-08-06T00:17:07;100957.66;;;25.65;100.00
60371;BME280;48550;40.588;49.684;2022-08-06T00:19:33;100957.16;;;25.63;100.00
60371;BME280;48550;40.588;49.684;2022-08-06T00:21:58;100941.03;;;25.53;100.00
60371;BME280;48550;40.588;49.684;2022-08-06T00:24:24;100941.19;;;25.48;100.00
60371;BME280;48550;40.588;49.684;2022-08-06T00:26:50;100943.16;;;25.39;100.00
60371;BME280;48550;40.588;49.684;2022-08-06T00:29:16;100922.00;;;24.96;100.00
60371;BME280;48550;40.588;49.684;2022-08-06T00:31:42;100912.13;;;24.52;100.00
60371;BME280;48550;40.588;49.684;2022-08-06T00:34:07;100900.81;;;24.45;100.00
60371;BME280;48550;40.588;49.684;2022-08-06T00:36:34;100911.78;;;24.45;100.00
60371;BME280;48550;40.588;49.684;2022-08-06T00:39:03;100911.84;;;24.54;100.00
60371;BME280;48550;40.588;49.684;2022-08-06T00:41:30;100922.66;;;24.67;100.00
60371;BME280;48550;40.588;49.684;2022-08-06T00:43:57;100919.91;;;24.85;100.00
60371;BME280;48550;40.588;49.684;2022-08-06T00:46:23;100913.94;;;24.91;99.57
60371;BME280;48550;40.588;49.684;2022-08-06T00:48:50;100891.97;;;25.09;99.24
60371;BME280;48550;40.588;49.684;2022-08-06T00:51:15;100901.31;;;25.25;100.00
60371;BME280;48550;40.588;49.684;2022-08-06T00:53:41;100901.94;;;25.39;93.65
60371;BME280;48550;40.588;49.684;2022-08-06T00:56:08;100902.28;;;25.29;91.56
60371;BME280;48550;40.588;49.684;2022-08-06T00:58:35;100916.34;;;25.19;90.68
60371;BME280;48550;40.588;49.684;2022-08-06T01:01:01;100905.84;;;25.12;88.18
60371;BME280;48550;40.588;49.684;2022-08-06T01:03:27;100898.09;;;25.14;86.29
60371;BME280;48550;40.588;49.684;2022-08-06T01:05:53;100909.41;;;25.30;87.38
60371;BME280;48550;40.588;49.684;2022-08-06T01:08:19;100905.19;;;25.32;91.18
60371;BME280;48550;40.588;49.684;2022-08-06T01:10:45;100901.78;;;25.36;97.14
60371;BME280;48550;40.588;49.684;2022-08-06T01:13:11;100899.34;;;25.43;95.80
60371;BME280;48550;40.588;49.684;2022-08-06T01:15:38;100903.53;;;25.49;94.05
60371;BME280;48550;40.588;49.684;2022-08-06T01:18:27;100913.53;;;25.53;84.37
60371;BME280;48550;40.588;49.684;2022-08-06T01:23:51;100931.66;;;25.54;85.89
60371;BME280;48550;40.588;49.684;2022-08-06T01:26:36;100920.81;;;25.49;84.83
60371;BME280;48550;40.588;49.684;2022-08-06T01:31:47;100939.72;;;25.59;89.78
60371;BME280;48550;40.588;49.684;2022-08-06T01:34:22;100952.06;;;25.10;100.00
60371;BME280;48550;40.588;49.684;2022-08-06T01:36:55;100951.56;;;24.65;100.00
60371;BME280;48550;40.588;49.684;2022-08-06T01:39:25;100951.97;;;24.41;100.00
60371;BME280;48550;40.588;49.684;2022-08-06T01:41:54;100960.53;;;24.48;100.00
60371;BME280;48550;40.588;49.684;2022-08-06T01:44:23;100970.63;;;24.22;100.00
60371;BME280;48550;40.588;49.684;2022-08-06T01:46:56;100960.56;;;23.77;100.00
60371;BME280;48550;40.588;49.684;2022-08-06T01:49:27;100981.03;;;23.49;100.00
60371;BME280;48550;40.588;49.684;2022-08-06T01:51:57;100981.28;;;23.39;100.00
60371;BME280;48550;40.588;49.684;2022-08-06T01:54:24;100986.44;;;23.40;100.00
60371;BME280;48550;40.588;49.684;2022-08-06T01:56:52;100989.88;;;23.46;100.00
60371;BME280;48550;40.588;49.684;2022-08-06T01:59:22;100992.88;;;23.58;100.00
60371;BME280;48550;40.588;49.684;2022-08-06T02:01:52;100996.47;;;23.67;100.00
60371;BME280;48550;40.588;49.684;2022-08-06T02:04:21;100991.84;;;23.76;100.00
60371;BME280;48550;40.588;49.684;2022-08-06T02:06:49;101003.44;;;23.96;100.00
60371;BME280;48550;40.588;49.684;2022-08-06T02:09:20;101007.66;;;24.02;100.00
60371;BME280;48550;40.588;49.684;2022-08-06T02:12:06;101000.41;;;24.06;100.00
60371;BME280;48550;40.588;49.684;2022-08-06T02:14:48;101004.06;;;23.93;100.00
60371;BME280;48550;40.588;49.684;2022-08-06T02:17:16;101007.75;;;23.88;100.00
60371;BME280;48550;40.588;49.684;2022-08-06T02:19:45;101006.75;;;23.84;100.00
60371;BME280;48550;40.588;49.684;2022-08-06T02:22:12;101017.53;;;23.81;100.00
60371;BME280;48550;40.588;49.684;2022-08-06T02:24:38;101025.88;;;23.75;100.00
60371;BME280;48550;40.588;49.684;2022-08-06T02:27:05;101040.50;;;23.71;100.00
60371;BME280;48550;40.588;49.684;2022-08-06T02:29:33;101036.94;;;23.70;100.00
60371;BME280;48550;40.588;49.684;2022-08-06T02:32:00;101034.66;;;23.64;100.00
60371;BME280;48550;40.588;49.684;2022-08-06T02:34:26;101038.44;;;23.54;100.00
60371;BME280;48550;40.588;49.684;2022-08-06T02:37:17;101039.38;;;23.50;100.00
60371;BME280;48550;40.588;49.684;2022-08-06T02:39:57;101033.69;;;23.46;100.00
60371;BME280;48550;40.588;49.684;2022-08-06T02:43:18;101032.34;;;23.57;100.00
60371;BME280;48550;40.588;49.684;2022-08-06T02:45:35;101034.59;;;23.55;100.00
60371;BME280;48550;40.588;49.684;2022-08-06T02:48:37;101029.81;;;23.61;100.00
60371;BME280;48550;40.588;49.684;2022-08-06T02:51:08;101015.78;;;23.62;100.00
60371;BME280;48550;40.588;49.684;2022-08-06T02:53:43;101032.66;;;23.56;100.00
60371;BME280;48550;40.588;49.684;2022-08-06T02:56:12;101050.63;;;23.48;100.00
60371;BME280;48550;40.588;49.684;2022-08-06T02:58:44;101057.66;;;23.40;100.00
60371;BME280;48550;40.588;49.684;2022-08-06T03:01:30;101068.06;;;23.30;100.00
60371;BME280;48550;40.588;49.684;2022-08-06T03:03:58;101083.59;;;23.21;100.00
60371;BME280;48550;40.588;49.684;2022-08-06T03:06:26;101072.03;;;23.24;100.00
60371;BME280;48550;40.588;49.684;2022-08-06T03:08:54;101058.16;;;23.20;100.00
60371;BME280;48550;40.588;49.684;2022-08-06T03:11:22;101052.78;;;23.01;100.00
60371;BME280;48550;40.588;49.684;2022-08-06T03:13:48;101043.78;;;22.73;100.00
60371;BME280;48550;40.588;49.684;2022-08-06T03:16:16;101046.25;;;22.61;100.00
60371;BME280;48550;40.588;49.684;2022-08-06T03:18:43;101069.34;;;22.69;100.00
60371;BME280;48550;40.588;49.684;2022-08-06T03:21:11;101051.81;;;22.56;100.00
60371;BME280;48550;40.588;49.684;2022-08-06T03:23:38;101041.50;;;22.39;100.00
60371;BME280;48550;40.588;49.684;2022-08-06T03:26:05;101044.69;;;22.14;100.00
60371;BME280;48550;40.588;49.684;2022-08-06T03:28:33;101057.50;;;22.00;100.00
60371;BME280;48550;40.588;49.684;2022-08-06T03:31:00;101045.13;;;21.88;100.00
60371;BME280;48550;40.588;49.684;2022-08-06T03:33:27;101048.97;;;21.87;100.00
60371;BME280;48550;40.588;49.684;2022-08-06T03:35:54;101048.75;;;21.84;100.00
60371;BME280;48550;40.588;49.684;2022-08-06T03:38:22;101040.06;;;21.96;100.00
60371;BME280;48550;40.588;49.684;2022-08-06T03:40:49;101034.00;;;21.99;100.00
60371;BME280;48550;40.588;49.684;2022-08-06T03:43:16;101021.03;;;21.91;100.00
60371;BME280;48550;40.588;49.684;2022-08-06T03:45:50;101039.13;;;22.05;100.00
60371;BME280;48550;40.588;49.684;2022-08-06T03:48:20;101045.50;;;22.28;100.00
60371;BME280;48550;40.588;49.684;2022-08-06T03:50:49;101044.44;;;22.43;100.00
60371;BME280;48550;40.588;49.684;2022-08-06T03:53:25;101036.72;;;22.45;100.00
60371;BME280;48550;40.588;49.684;2022-08-06T03:55:57;101041.28;;;22.49;100.00
60371;BME280;48550;40.588;49.684;2022-08-06T03:58:25;101037.13;;;22.52;100.00
60371;BME280;48550;40.588;49.684;2022-08-06T04:01:07;101041.47;;;22.67;100.00
60371;BME280;48550;40.588;49.684;2022-08-06T04:03:35;101043.50;;;22.75;100.00
60371;BME280;48550;40.588;49.684;2022-08-06T04:06:03;101042.69;;;22.88;100.00
60371;BME280;48550;40.588;49.684;2022-08-06T04:08:31;101037.31;;;22.83;100.00
60371;BME280;48550;40.588;49.684;2022-08-06T04:10:58;101027.78;;;22.94;100.00
60371;BME280;48550;40.588;49.684;2022-08-06T04:13:26;101024.72;;;22.96;100.00
60371;BME280;48550;40.588;49.684;2022-08-06T04:15:54;101033.44;;;22.98;100.00
60371;BME280;48550;40.588;49.684;2022-08-06T04:18:32;101022.50;;;22.98;100.00
60371;BME280;48550;40.588;49.684;2022-08-06T04:23:26;101018.31;;;23.00;100.00
60371;BME280;48550;40.588;49.684;2022-08-06T04:25:54;101005.25;;;22.97;100.00
60371;BME280;48550;40.588;49.684;2022-08-06T04:28:21;101015.38;;;23.10;100.00
60371;BME280;48550;40.588;49.684;2022-08-06T04:30:49;101026.91;;;23.21;100.00
60371;BME280;48550;40.588;49.684;2022-08-06T04:33:19;101043.78;;;23.37;100.00
60371;BME280;48550;40.588;49.684;2022-08-06T04:35:46;101047.50;;;23.55;100.00
60371;BME280;48550;40.588;49.684;2022-08-06T04:38:15;101039.81;;;23.88;100.00
60371;BME280;48550;40.588;49.684;2022-08-06T04:40:42;101042.09;;;24.25;100.00
60371;BME280;48550;40.588;49.684;2022-08-06T04:43:11;101046.88;;;24.42;100.00
60371;BME280;48550;40.588;49.684;2022-08-06T04:45:39;101047.09;;;24.54;100.00
60371;BME280;48550;40.588;49.684;2022-08-06T04:48:09;101044.06;;;24.64;100.00
60371;BME280;48550;40.588;49.684;2022-08-06T04:50:36;101055.88;;;24.74;100.00
60371;BME280;48550;40.588;49.684;2022-08-06T04:53:10;101058.28;;;24.75;100.00
60371;BME280;48550;40.588;49.684;2022-08-06T04:55:37;101055.22;;;24.77;100.00
60371;BME280;48550;40.588;49.684;2022-08-06T04:58:05;101045.88;;;24.78;100.00
60371;BME280;48550;40.588;49.684;2022-08-06T05:00:32;101044.47;;;24.49;100.00
60371;BME280;48550;40.588;49.684;2022-08-06T05:02:58;101041.16;;;24.61;100.00
60371;BME280;48550;40.588;49.684;2022-08-06T05:05:24;101039.06;;;24.75;100.00
60371;BME280;48550;40.588;49.684;2022-08-06T05:07:53;101040.41;;;24.95;100.00
60371;BME280;48550;40.588;49.684;2022-08-06T05:10:21;101039.97;;;25.36;100.00
60371;BME280;48550;40.588;49.684;2022-08-06T05:12:52;101036.41;;;25.70;100.00
60371;BME280;48550;40.588;49.684;2022-08-06T05:15:31;101033.94;;;25.86;100.00
60371;BME280;48550;40.588;49.684;2022-08-06T05:18:07;101028.41;;;26.03;100.00
60371;BME280;48550;40.588;49.684;2022-08-06T05:20:37;101033.19;;;26.23;100.00
60371;BME280;48550;40.588;49.684;2022-08-06T05:23:27;101020.84;;;26.29;100.00
60371;BME280;48550;40.588;49.684;2022-08-06T05:25:54;101027.25;;;26.13;98.89
60371;BME280;48550;40.588;49.684;2022-08-06T05:28:20;101031.78;;;26.00;96.56
60371;BME280;48550;40.588;49.684;2022-08-06T05:30:49;101027.47;;;25.90;94.83
60371;BME280;48550;40.588;49.684;2022-08-06T05:33:32;101032.94;;;25.99;95.72
60371;BME280;48550;40.588;49.684;2022-08-06T05:36:00;101032.31;;;26.02;94.99
60371;BME280;48550;40.588;49.684;2022-08-06T05:38:26;101028.09;;;26.05;96.37
60371;BME280;48550;40.588;49.684;2022-08-06T05:40:55;101037.91;;;26.14;98.78
60371;BME280;48550;40.588;49.684;2022-08-06T05:43:21;101031.72;;;26.35;97.94
60371;BME280;48550;40.588;49.684;2022-08-06T05:45:52;101041.00;;;26.51;99.46
60371;BME280;48550;40.588;49.684;2022-08-06T05:48:20;101036.41;;;26.34;100.00
60371;BME280;48550;40.588;49.684;2022-08-06T05:50:55;101040.50;;;26.19;100.00
60371;BME280;48550;40.588;49.684;2022-08-06T05:53:26;101042.38;;;26.36;100.00
60371;BME280;48550;40.588;49.684;2022-08-06T05:55:57;101037.63;;;27.25;99.75
60371;BME280;48550;40.588;49.684;2022-08-06T05:58:31;101036.69;;;27.63;97.42
60371;BME280;48550;40.588;49.684;2022-08-06T06:01:02;101042.75;;;29.23;91.93
60371;BME280;48550;40.588;49.684;2022-08-06T06:03:29;101041.25;;;29.26;88.56
60371;BME280;48550;40.588;49.684;2022-08-06T06:05:58;101046.38;;;28.75;92.31
60371;BME280;48550;40.588;49.684;2022-08-06T06:08:25;101043.50;;;28.84;94.49
60371;BME280;48550;40.588;49.684;2022-08-06T06:10:51;101037.09;;;28.31;98.86
60371;BME280;48550;40.588;49.684;2022-08-06T06:13:20;101028.25;;;27.92;100.00
60371;BME280;48550;40.588;49.684;2022-08-06T06:15:52;101029.53;;;27.95;100.00
60371;BME280;48550;40.588;49.684;2022-08-06T06:24:00;101047.91;;;29.25;95.11
60371;BME280;48550;40.588;49.684;2022-08-06T06:26:42;101046.16;;;29.45;92.33
60371;BME280;48550;40.588;49.684;2022-08-06T06:37:34;101057.75;;;29.78;91.39
60371;BME280;48550;40.588;49.684;2022-08-06T06:42:46;101036.06;;;29.24;95.61
60371;BME280;48550;40.588;49.684;2022-08-06T06:45:24;101059.97;;;29.45;93.18
60371;BME280;48550;40.588;49.684;2022-08-06T06:47:59;101060.09;;;29.64;92.40
60371;BME280;48550;40.588;49.684;2022-08-06T06:50:33;101055.63;;;29.87;89.27
60371;BME280;48550;40.588;49.684;2022-08-06T06:53:00;101057.16;;;29.17;91.33
60371;BME280;48550;40.588;49.684;2022-08-06T06:55:38;101045.38;;;29.60;88.56
60371;BME280;48550;40.588;49.684;2022-08-06T07:00:59;101058.25;;;29.68;89.66
60371;BME280;48550;40.588;49.684;2022-08-06T07:03:27;101041.88;;;29.47;89.66
60371;BME280;48550;40.588;49.684;2022-08-06T07:05:54;101049.25;;;28.91;90.21
60371;BME280;48550;40.588;49.684;2022-08-06T07:08:23;101045.44;;;29.48;87.40
60371;BME280;48550;40.588;49.684;2022-08-06T07:10:50;101044.41;;;29.68;85.47
60371;BME280;48550;40.588;49.684;2022-08-06T07:13:17;101037.94;;;29.76;84.91
60371;BME280;48550;40.588;49.684;2022-08-06T07:15:45;101042.25;;;29.33;85.16
60371;BME280;48550;40.588;49.684;2022-08-06T07:18:14;101044.34;;;28.35;92.70
60371;BME280;48550;40.588;49.684;2022-08-06T07:20:42;101044.63;;;28.83;93.42
60371;BME280;48550;40.588;49.684;2022-08-06T07:23:09;101029.47;;;28.64;95.61
60371;BME280;48550;40.588;49.684;2022-08-06T07:25:44;101027.19;;;28.54;93.89
60371;BME280;48550;40.588;49.684;2022-08-06T07:28:12;101038.13;;;28.38;96.81
60371;BME280;48550;40.588;49.684;2022-08-06T07:30:43;101020.19;;;28.32;92.16
60371;BME280;48550;40.588;49.684;2022-08-06T07:33:10;101046.75;;;28.25;91.71
60371;BME280;48550;40.588;49.684;2022-08-06T07:35:40;101025.91;;;28.64;91.07
60371;BME280;48550;40.588;49.684;2022-08-06T07:38:08;101019.50;;;28.35;92.84
60371;BME280;48550;40.588;49.684;2022-08-06T07:40:52;101013.84;;;28.56;91.31
60371;BME280;48550;40.588;49.684;2022-08-06T07:43:24;101025.81;;;28.36;91.10
60371;BME280;48550;40.588;49.684;2022-08-06T07:45:52;101016.34;;;28.61;90.75
60371;BME280;48550;40.588;49.684;2022-08-06T07:48:23;101028.22;;;28.62;91.69
60371;BME280;48550;40.588;49.684;2022-08-06T07:50:51;101022.56;;;28.70;96.72
60371;BME280;48550;40.588;49.684;2022-08-06T07:53:19;101034.72;;;28.21;97.11
60371;BME280;48550;40.588;49.684;2022-08-06T07:55:46;101024.16;;;28.23;99.72
60371;BME280;48550;40.588;49.684;2022-08-06T07:58:14;101019.94;;;27.80;100.00
60371;BME280;48550;40.588;49.684;2022-08-06T08:00:40;101015.34;;;27.72;100.00
60371;BME280;48550;40.588;49.684;2022-08-06T08:03:09;101026.44;;;28.08;100.00
60371;BME280;48550;40.588;49.684;2022-08-06T08:05:54;101012.16;;;27.94;100.00
60371;BME280;48550;40.588;49.684;2022-08-06T08:08:39;101001.91;;;27.82;100.00
60371;BME280;48550;40.588;49.684;2022-08-06T08:11:06;101001.78;;;27.67;100.00
60371;BME280;48550;40.588;49.684;2022-08-06T08:13:33;101005.00;;;27.81;100.00
60371;BME280;48550;40.588;49.684;2022-08-06T08:16:00;101010.38;;;27.65;100.00
60371;BME280;48550;40.588;49.684;2022-08-06T08:18:30;101003.16;;;27.73;100.00
60371;BME280;48550;40.588;49.684;2022-08-06T08:20:58;100991.81;;;27.99;100.00
60371;BME280;48550;40.588;49.684;2022-08-06T08:23:25;100990.00;;;27.58;100.00
60371;BME280;48550;40.588;49.684;2022-08-06T08:25:51;100989.72;;;27.71;100.00
60371;BME280;48550;40.588;49.684;2022-08-06T08:28:17;101005.22;;;27.64;100.00
60371;BME280;48550;40.588;49.684;2022-08-06T08:30:44;100989.84;;;27.21;100.00
60371;BME280;48550;40.588;49.684;2022-08-06T08:33:11;100996.91;;;27.10;100.00
60371;BME280;48550;40.588;49.684;2022-08-06T08:35:36;100991.47;;;27.55;100.00
60371;BME280;48550;40.588;49.684;2022-08-06T08:38:02;100985.16;;;27.54;100.00
60371;BME280;48550;40.588;49.684;2022-08-06T08:40:29;100978.56;;;27.68;100.00
60371;BME280;48550;40.588;49.684;2022-08-06T08:42:58;100980.19;;;27.48;100.00
60371;BME280;48550;40.588;49.684;2022-08-06T08:45:28;100992.81;;;27.70;100.00
60371;BME280;48550;40.588;49.684;2022-08-06T08:47:57;100997.75;;;27.76;100.00
60371;BME280;48550;40.588;49.684;2022-08-06T08:50:27;100988.56;;;27.72;100.00
60371;BME280;48550;40.588;49.684;2022-08-06T08:53:07;100986.44;;;27.57;100.00
60371;BME280;48550;40.588;49.684;2022-08-06T08:55:34;100979.53;;;27.51;100.00
60371;BME280;48550;40.588;49.684;2022-08-06T08:58:00;100982.13;;;27.68;100.00
60371;BME280;48550;40.588;49.684;2022-08-06T09:00:26;100969.63;;;27.83;100.00
60371;BME280;48550;40.588;49.684;2022-08-06T09:02:52;100983.09;;;27.97;100.00
60371;BME280;48550;40.588;49.684;2022-08-06T09:05:20;100976.41;;;27.85;100.00
60371;BME280;48550;40.588;49.684;2022-08-06T09:07:46;100978.25;;;27.81;100.00
60371;BME280;48550;40.588;49.684;2022-08-06T09:10:12;100989.88;;;27.54;100.00
60371;BME280;48550;40.588;49.684;2022-08-06T09:12:38;100978.63;;;27.59;100.00
60371;BME280;48550;40.588;49.684;2022-08-06T09:15:04;100972.69;;;27.69;100.00
60371;BME280;48550;40.588;49.684;2022-08-06T09:17:31;100971.00;;;27.77;100.00
60371;BME280;48550;40.588;49.684;2022-08-06T09:19:57;100979.25;;;27.77;100.00
60371;BME280;48550;40.588;49.684;2022-08-06T09:22:23;100981.78;;;27.70;100.00
60371;BME280;48550;40.588;49.684;2022-08-06T09:24:48;100978.94;;;28.03;100.00
60371;BME280;48550;40.588;49.684;2022-08-06T09:27:16;100967.00;;;27.99;100.00
60371;BME280;48550;40.588;49.684;2022-08-06T09:29:58;100980.56;;;28.04;100.00
60371;BME280;48550;40.588;49.684;2022-08-06T09:32:40;100975.25;;;27.74;100.00
60371;BME280;48550;40.588;49.684;2022-08-06T09:35:19;100973.16;;;27.71;100.00
60371;BME280;48550;40.588;49.684;2022-08-06T09:37:46;100980.66;;;27.95;100.00
60371;BME280;48550;40.588;49.684;2022-08-06T09:40:14;100973.31;;;27.54;100.00
60371;BME280;48550;40.588;49.684;2022-08-06T09:42:48;100973.22;;;27.50;100.00
60371;BME280;48550;40.588;49.684;2022-08-06T09:45:17;100978.91;;;27.66;100.00
60371;BME280;48550;40.588;49.684;2022-08-06T09:47:47;100978.81;;;27.75;100.00
60371;BME280;48550;40.588;49.684;2022-08-06T09:50:14;100972.97;;;27.89;100.00
60371;BME280;48550;40.588;49.684;2022-08-06T09:52:39;100972.28;;;28.16;100.00
60371;BME280;48550;40.588;49.684;2022-08-06T09:55:06;100973.66;;;27.98;100.00
60371;BME280;48550;40.588;49.684;2022-08-06T09:57:45;100974.91;;;28.12;100.00
60371;BME280;48550;40.588;49.684;2022-08-06T10:00:25;100982.97;;;28.05;100.00
60371;BME280;48550;40.588;49.684;2022-08-06T10:03:03;100976.88;;;27.88;100.00
60371;BME280;48550;40.588;49.684;2022-08-06T10:05:29;100980.75;;;27.74;100.00
60371;BME280;48550;40.588;49.684;2022-08-06T10:08:15;100988.72;;;28.00;100.00
60371;BME280;48550;40.588;49.684;2022-08-06T10:10:47;100982.03;;;27.77;100.00
60371;BME280;48550;40.588;49.684;2022-08-06T10:13:23;100971.22;;;27.84;100.00
60371;BME280;48550;40.588;49.684;2022-08-06T10:15:55;100982.75;;;27.98;100.00
60371;BME280;48550;40.588;49.684;2022-08-06T10:18:46;100981.47;;;27.96;100.00
60371;BME280;48550;40.588;49.684;2022-08-06T10:21:17;100989.88;;;28.11;100.00
60371;BME280;48550;40.588;49.684;2022-08-06T10:23:46;100990.75;;;28.24;100.00
60371;BME280;48550;40.588;49.684;2022-08-06T10:26:17;100985.56;;;28.35;100.00
60371;BME280;48550;40.588;49.684;2022-08-06T10:28:46;100987.78;;;27.96;99.45
60371;BME280;48550;40.588;49.684;2022-08-06T10:31:15;100988.22;;;27.74;100.00
60371;BME280;48550;40.588;49.684;2022-08-06T10:33:54;100993.88;;;27.77;100.00
60371;BME280;48550;40.588;49.684;2022-08-06T10:36:26;100990.69;;;27.54;100.00
60371;BME280;48550;40.588;49.684;2022-08-06T10:38:55;100989.56;;;27.35;100.00
60371;BME280;48550;40.588;49.684;2022-08-06T10:41:21;100990.75;;;27.46;100.00
60371;BME280;48550;40.588;49.684;2022-08-06T10:43:48;101001.38;;;27.35;100.00
60371;BME280;48550;40.588;49.684;2022-08-06T10:46:15;100987.91;;;27.21;100.00
60371;BME280;48550;40.588;49.684;2022-08-06T10:48:45;100993.50;;;27.46;100.00
60371;BME280;48550;40.588;49.684;2022-08-06T10:51:13;100989.63;;;27.80;100.00
60371;BME280;48550;40.588;49.684;2022-08-06T10:53:42;100993.44;;;28.00;100.00
60371;BME280;48550;40.588;49.684;2022-08-06T10:56:10;100992.38;;;27.92;100.00
60371;BME280;48550;40.588;49.684;2022-08-06T10:58:38;101004.78;;;27.74;100.00
60371;BME280;48550;40.588;49.684;2022-08-06T11:04:19;101006.00;;;27.43;100.00
60371;BME280;48550;40.588;49.684;2022-08-06T11:07:05;100997.81;;;27.56;100.00
60371;BME280;48550;40.588;49.684;2022-08-06T11:10:00;100986.31;;;27.53;100.00
60371;BME280;48550;40.588;49.684;2022-08-06T11:15:05;100986.72;;;27.64;100.00
60371;BME280;48550;40.588;49.684;2022-08-06T11:18:02;100989.75;;;27.30;100.00
60371;BME280;48550;40.588;49.684;2022-08-06T11:23:21;100996.63;;;27.77;100.00
60371;BME280;48550;40.588;49.684;2022-08-06T11:25:52;100986.38;;;27.78;100.00
60371;BME280;48550;40.588;49.684;2022-08-06T11:28:20;100987.88;;;27.75;100.00
60371;BME280;48550;40.588;49.684;2022-08-06T11:30:52;100991.19;;;27.48;100.00
60371;BME280;48550;40.588;49.684;2022-08-06T11:36:00;100992.13;;;27.73;100.00
60371;BME280;48550;40.588;49.684;2022-08-06T11:54:16;101009.31;;;26.95;100.00
60371;BME280;48550;40.588;49.684;2022-08-06T11:59:44;101006.53;;;27.04;100.00
60371;BME280;48550;40.588;49.684;2022-08-06T12:02:16;101004.88;;;26.82;100.00
60371;BME280;48550;40.588;49.684;2022-08-06T12:04:44;101019.75;;;26.89;100.00
60371;BME280;48550;40.588;49.684;2022-08-06T12:07:23;101019.03;;;27.01;100.00
60371;BME280;48550;40.588;49.684;2022-08-06T12:10:09;101023.94;;;27.16;100.00
60371;BME280;48550;40.588;49.684;2022-08-06T12:17:39;101012.38;;;27.02;100.00
60371;BME280;48550;40.588;49.684;2022-08-06T12:20:06;100996.63;;;27.23;100.00
60371;BME280;48550;40.588;49.684;2022-08-06T12:22:35;100997.69;;;27.31;100.00
60371;BME280;48550;40.588;49.684;2022-08-06T12:25:05;100984.13;;;26.84;100.00
60371;BME280;48550;40.588;49.684;2022-08-06T12:27:36;100999.03;;;26.83;100.00
60371;BME280;48550;40.588;49.684;2022-08-06T12:30:03;101008.59;;;26.86;100.00
60371;BME280;48550;40.588;49.684;2022-08-06T12:32:32;101002.81;;;26.79;100.00
60371;BME280;48550;40.588;49.684;2022-08-06T12:35:01;100998.56;;;26.81;100.00
60371;BME280;48550;40.588;49.684;2022-08-06T12:37:53;100982.72;;;26.78;100.00
60371;BME280;48550;40.588;49.684;2022-08-06T12:40:21;100984.66;;;26.78;100.00
60371;BME280;48550;40.588;49.684;2022-08-06T12:43:13;100988.38;;;27.03;100.00
60371;BME280;48550;40.588;49.684;2022-08-06T12:45:40;101001.06;;;26.95;100.00
60371;BME280;48550;40.588;49.684;2022-08-06T12:48:09;100995.44;;;27.12;100.00
60371;BME280;48550;40.588;49.684;2022-08-06T12:50:40;100987.59;;;27.02;100.00
60371;BME280;48550;40.588;49.684;2022-08-06T12:53:10;100986.94;;;26.76;100.00
60371;BME280;48550;40.588;49.684;2022-08-06T12:58:08;100981.94;;;26.69;100.00
60371;BME280;48550;40.588;49.684;2022-08-06T13:00:37;100977.78;;;26.63;100.00
60371;BME280;48550;40.588;49.684;2022-08-06T13:03:03;100966.88;;;26.46;100.00
60371;BME280;48550;40.588;49.684;2022-08-06T13:05:31;100987.19;;;26.33;100.00
60371;BME280;48550;40.588;49.684;2022-08-06T13:07:58;100970.78;;;26.45;100.00
60371;BME280;48550;40.588;49.684;2022-08-06T13:10:24;100966.94;;;26.37;100.00
60371;BME280;48550;40.588;49.684;2022-08-06T13:12:57;100978.28;;;26.36;100.00
60371;BME280;48550;40.588;49.684;2022-08-06T13:15:24;100981.31;;;26.43;100.00
60371;BME280;48550;40.588;49.684;2022-08-06T13:18:07;100990.31;;;26.52;100.00
60371;BME280;48550;40.588;49.684;2022-08-06T13:23:09;100982.75;;;26.70;100.00
60371;BME280;48550;40.588;49.684;2022-08-06T13:25:43;100983.09;;;26.68;100.00
60371;BME280;48550;40.588;49.684;2022-08-06T13:28:14;100977.41;;;26.44;100.00
60371;BME280;48550;40.588;49.684;2022-08-06T13:30:41;100991.41;;;26.30;100.00
60371;BME280;48550;40.588;49.684;2022-08-06T13:33:12;100991.84;;;26.41;100.00
60371;BME280;48550;40.588;49.684;2022-08-06T13:35:39;100981.78;;;26.45;100.00
60371;BME280;48550;40.588;49.684;2022-08-06T13:38:05;100978.28;;;26.36;100.00
60371;BME280;48550;40.588;49.684;2022-08-06T13:40:42;100982.00;;;26.31;98.57
60371;BME280;48550;40.588;49.684;2022-08-06T13:43:09;100965.00;;;26.29;100.00
60371;BME280;48550;40.588;49.684;2022-08-06T13:45:35;100968.88;;;26.37;100.00
60371;BME280;48550;40.588;49.684;2022-08-06T13:48:09;100964.59;;;26.18;97.27
60371;BME280;48550;40.588;49.684;2022-08-06T13:50:37;100969.56;;;26.34;100.00
60371;BME280;48550;40.588;49.684;2022-08-06T13:53:04;100976.00;;;26.38;100.00
60371;BME280;48550;40.588;49.684;2022-08-06T13:55:30;100971.16;;;26.35;100.00